Time;durP1;ratioP1;P1;durP2;ratioP2;P2;SDS_P1;SDS_P2;PMS_P1;PMS_P2;Temp;Humidity;BMP_temperature;BMP_pressure;BME280_temperature;BME280_humidity;BME280_pressure;Samples;Min_cycle;Max_cycle;Signal;HPM_P1;HPM_P2
2023/11/24 00:00:09;;;;;;;1.60;1.20;;;21.40;90.40;;;;;;5033947;28;20928;-68
2023/11/24 00:02:36;;;;;;;1.30;1.20;;;21.30;90.40;;;;;;5030910;28;20462;-68
2023/11/24 00:05:06;;;;;;;1.20;0.80;;;21.30;90.40;;;;;;5031711;28;20487;-68
2023/11/24 00:07:32;;;;;;;1.70;0.97;;;21.30;90.40;;;;;;5033775;28;20454;-68
2023/11/24 00:10:00;;;;;;;1.20;1.10;;;21.30;90.40;;;;;;5035285;28;20440;-69
2023/11/24 00:12:29;;;;;;;1.77;1.37;;;21.30;90.40;;;;;;5030232;28;20461;-68
2023/11/24 00:14:57;;;;;;;1.43;1.30;;;21.30;90.40;;;;;;5032031;28;20565;-68
2023/11/24 00:17:23;;;;;;;1.20;1.10;;;21.30;90.40;;;;;;5029218;28;20829;-68
2023/11/24 00:19:50;;;;;;;1.20;1.10;;;21.30;90.50;;;;;;5033278;28;20361;-67
2023/11/24 00:22:17;;;;;;;1.10;0.90;;;21.20;90.40;;;;;;5030399;28;20466;-68
2023/11/24 00:24:44;;;;;;;1.52;1.10;;;21.30;90.50;;;;;;5030738;28;20317;-68
2023/11/24 00:27:11;;;;;;;1.20;1.00;;;21.20;90.50;;;;;;5031206;28;20344;-68
2023/11/24 00:29:41;;;;;;;1.40;0.93;;;21.20;90.40;;;;;;5025192;28;21389;-68
2023/11/24 00:32:07;;;;;;;1.33;1.00;;;21.20;90.50;;;;;;5029672;28;20459;-67
2023/11/24 00:34:35;;;;;;;1.40;1.10;;;21.20;90.50;;;;;;5030540;28;20500;-68
2023/11/24 00:37:01;;;;;;;2.53;1.40;;;21.20;90.50;;;;;;5025921;28;20826;-68
2023/11/24 00:39:28;;;;;;;1.57;0.97;;;21.20;90.50;;;;;;5031477;28;20443;-68
2023/11/24 00:41:55;;;;;;;2.05;1.00;;;21.20;90.50;;;;;;5030368;28;20515;-68
2023/11/24 00:44:22;;;;;;;1.30;1.02;;;21.20;90.50;;;;;;5026362;28;20200;-68
2023/11/24 00:46:50;;;;;;;1.43;1.33;;;21.20;90.50;;;;;;5028933;28;20210;-68
2023/11/24 00:49:17;;;;;;;1.30;1.20;;;21.10;90.40;;;;;;5030725;28;20465;-68
2023/11/24 00:51:44;;;;;;;1.50;1.05;;;21.10;90.50;;;;;;5031280;28;20497;-67
2023/11/24 00:54:11;;;;;;;1.10;1.00;;;21.10;90.50;;;;;;5028792;28;20216;-68
2023/11/24 00:56:38;;;;;;;1.63;1.30;;;21.10;90.50;;;;;;5029723;28;20195;-68
2023/11/24 00:59:05;;;;;;;1.15;1.05;;;21.10;90.50;;;;;;5025885;28;20195;-68
2023/11/24 01:01:32;;;;;;;1.90;1.10;;;21.10;90.50;;;;;;5024540;28;20303;-68
2023/11/24 01:04:01;;;;;;;1.63;1.10;;;21.10;90.50;;;;;;5021485;28;20218;-68
2023/11/24 01:06:28;;;;;;;2.03;1.07;;;21.10;90.50;;;;;;5028989;28;20778;-67
2023/11/24 01:08:54;;;;;;;2.30;0.90;;;21.10;90.50;;;;;;5027682;28;20469;-68
2023/11/24 01:11:21;;;;;;;1.27;1.17;;;21.10;90.50;;;;;;5025314;28;20252;-68
2023/11/24 01:13:48;;;;;;;1.63;1.37;;;21.10;90.60;;;;;;5026067;28;20257;-67
2023/11/24 01:16:15;;;;;;;2.10;1.45;;;21.00;90.60;;;;;;5027383;28;20454;-67
2023/11/24 01:18:42;;;;;;;1.33;1.23;;;21.00;90.50;;;;;;5019121;28;20224;-67
2023/11/24 01:21:10;;;;;;;1.88;1.10;;;21.00;90.50;;;;;;5020604;28;20671;-68
2023/11/24 01:23:37;;;;;;;1.27;1.17;;;21.00;90.60;;;;;;5024731;28;20207;-67
2023/11/24 01:26:05;;;;;;;2.17;1.15;;;21.00;90.60;;;;;;5023580;28;20240;-68
2023/11/24 01:28:32;;;;;;;1.70;1.35;;;21.00;90.60;;;;;;5021882;28;20251;-68
2023/11/24 01:30:58;;;;;;;1.40;1.10;;;21.00;90.60;;;;;;5021675;28;20194;-68
2023/11/24 01:33:25;;;;;;;1.10;0.90;;;21.00;90.60;;;;;;5020911;28;20265;-68
2023/11/24 01:35:53;;;;;;;1.30;1.20;;;21.00;90.60;;;;;;5015005;28;20854;-68
2023/11/24 01:38:23;;;;;;;1.30;1.15;;;21.00;90.60;;;;;;5021717;28;20209;-68
2023/11/24 01:40:50;;;;;;;1.60;0.90;;;21.00;90.60;;;;;;5025582;28;20227;-67
2023/11/24 01:43:17;;;;;;;1.07;0.90;;;21.00;90.60;;;;;;5027170;28;20463;-68
2023/11/24 01:45:45;;;;;;;1.38;1.17;;;21.00;90.60;;;;;;5027541;28;20468;-68
2023/11/24 01:48:14;;;;;;;1.27;1.10;;;21.00;90.60;;;;;;5022645;28;20709;-68
2023/11/24 01:50:41;;;;;;;1.20;1.10;;;21.00;90.70;;;;;;5021480;28;20462;-68
2023/11/24 01:53:08;;;;;;;1.10;1.00;;;20.90;90.60;;;;;;5023891;28;20207;-68
2023/11/24 01:55:36;;;;;;;1.50;1.05;;;20.90;90.60;;;;;;5023511;28;20289;-68
2023/11/24 01:58:04;;;;;;;1.00;0.80;;;21.00;90.60;;;;;;5021662;28;20217;-69
2023/11/24 02:00:31;;;;;;;1.48;1.38;;;20.90;90.60;;;;;;5026342;28;20936;-68
2023/11/24 02:02:58;;;;;;;1.10;0.90;;;20.90;90.60;;;;;;5026278;28;20191;-68
2023/11/24 02:05:25;;;;;;;1.20;1.00;;;20.90;90.60;;;;;;5024801;28;20209;-67
2023/11/24 02:07:52;;;;;;;1.20;0.90;;;20.90;90.60;;;;;;5024163;28;20193;-68
2023/11/24 02:10:20;;;;;;;2.23;0.80;;;20.90;90.70;;;;;;5022818;28;21010;-67
2023/11/24 02:12:48;;;;;;;1.17;1.07;;;20.90;90.70;;;;;;5031882;28;21091;-67
2023/11/24 02:15:15;;;;;;;1.20;1.10;;;20.90;90.70;;;;;;5028054;28;21388;-68
2023/11/24 02:17:42;;;;;;;2.00;1.20;;;20.90;91.00;;;;;;5031170;28;20203;-68
2023/11/24 02:20:13;;;;;;;1.08;0.90;;;20.90;90.70;;;;;;5025669;28;20198;-68
2023/11/24 02:22:42;;;;;;;1.10;1.00;;;20.90;90.70;;;;;;5027442;28;20789;-68
2023/11/24 02:25:10;;;;;;;2.03;1.10;;;20.90;90.70;;;;;;5024443;28;20199;-68
2023/11/24 02:27:37;;;;;;;1.10;1.00;;;20.80;90.70;;;;;;5029362;28;20453;-68
2023/11/24 02:30:05;;;;;;;1.35;0.90;;;20.90;90.70;;;;;;5023862;28;20209;-68
2023/11/24 02:32:33;;;;;;;1.60;1.20;;;20.80;90.70;;;;;;5022328;28;20573;-68
2023/11/24 02:35:00;;;;;;;1.13;1.03;;;20.80;90.70;;;;;;5029076;28;20717;-68
2023/11/24 02:37:27;;;;;;;1.00;0.90;;;20.80;90.70;;;;;;5027495;28;20465;-68
2023/11/24 02:39:55;;;;;;;1.30;0.88;;;20.80;90.70;;;;;;5030151;28;20208;-68
2023/11/24 02:42:22;;;;;;;2.13;1.07;;;20.80;90.70;;;;;;5022423;28;20197;-68
2023/11/24 02:44:49;;;;;;;1.37;1.10;;;20.80;90.70;;;;;;5026440;28;20465;-68
2023/11/24 02:47:16;;;;;;;1.00;0.90;;;20.80;90.70;;;;;;5028956;28;20461;-68
2023/11/24 02:49:43;;;;;;;1.20;0.90;;;20.80;90.70;;;;;;5029009;28;20540;-68
2023/11/24 02:52:09;;;;;;;1.20;1.00;;;20.80;90.70;;;;;;5026513;28;20752;-68
2023/11/24 02:54:36;;;;;;;1.40;1.30;;;20.80;90.80;;;;;;5025714;28;21073;-68
2023/11/24 02:57:05;;;;;;;1.10;0.90;;;20.80;90.70;;;;;;5027194;28;20457;-68
2023/11/24 02:59:31;;;;;;;1.20;1.00;;;20.80;90.70;;;;;;5028694;28;20186;-67
2023/11/24 03:01:58;;;;;;;1.30;1.00;;;20.80;90.80;;;;;;5033882;28;20215;-67
2023/11/24 03:04:25;;;;;;;1.08;0.98;;;20.80;90.80;;;;;;5030277;28;20220;-68
2023/11/24 03:06:52;;;;;;;1.55;0.80;;;20.80;90.70;;;;;;5029530;28;20188;-68
2023/11/24 03:09:22;;;;;;;1.03;0.90;;;20.80;90.80;;;;;;5029186;28;20293;-69
2023/11/24 03:11:49;;;;;;;1.27;0.80;;;20.80;90.80;;;;;;5030878;28;20455;-68
2023/11/24 03:14:20;;;;;;;1.20;0.83;;;20.80;90.80;;;;;;5027643;28;21020;-68
2023/11/24 03:16:47;;;;;;;1.20;1.03;;;20.80;90.80;;;;;;5032647;28;20461;-68
2023/11/24 03:19:13;;;;;;;1.37;1.03;;;20.70;90.70;;;;;;5031398;28;20464;-68
2023/11/24 03:21:40;;;;;;;1.57;1.20;;;20.80;90.80;;;;;;5034074;28;20469;-68
2023/11/24 03:24:07;;;;;;;1.10;0.95;;;20.70;90.70;;;;;;5030078;28;20461;-68
2023/11/24 03:26:34;;;;;;;1.20;0.90;;;20.70;90.80;;;;;;5027625;28;20199;-68
2023/11/24 03:29:00;;;;;;;1.33;1.03;;;20.70;90.80;;;;;;5033313;28;20711;-68
2023/11/24 03:31:29;;;;;;;2.10;1.03;;;20.70;90.80;;;;;;5028251;28;20472;-68
2023/11/24 03:33:55;;;;;;;1.10;0.77;;;20.70;90.80;;;;;;5029875;28;20461;-68
2023/11/24 03:36:22;;;;;;;1.30;1.15;;;20.70;90.80;;;;;;5027584;28;21012;-68
2023/11/24 03:38:49;;;;;;;1.40;1.30;;;20.70;90.70;;;;;;5031496;28;20199;-68
2023/11/24 03:41:16;;;;;;;1.10;0.80;;;20.70;90.80;;;;;;5029760;28;20453;-68
2023/11/24 03:43:43;;;;;;;1.25;1.15;;;20.70;90.80;;;;;;5028481;28;20202;-68
2023/11/24 03:46:10;;;;;;;0.90;0.80;;;20.70;90.80;;;;;;5027607;28;20214;-68
2023/11/24 03:48:38;;;;;;;1.27;0.90;;;20.70;90.80;;;;;;5025365;28;20187;-68
2023/11/24 03:51:06;;;;;;;1.20;1.00;;;20.70;90.80;;;;;;5023876;28;20462;-68
2023/11/24 03:53:32;;;;;;;1.30;1.10;;;20.70;90.80;;;;;;5029993;28;20460;-68
2023/11/24 03:55:58;;;;;;;1.00;0.90;;;20.70;90.80;;;;;;5026939;28;20488;-67
2023/11/24 03:58:25;;;;;;;1.10;0.90;;;20.70;90.80;;;;;;5028740;28;20199;-68
2023/11/24 04:00:52;;;;;;;1.10;0.98;;;20.60;90.70;;;;;;5031230;28;20214;-68
2023/11/24 04:03:19;;;;;;;1.30;1.00;;;20.70;90.80;;;;;;5026660;28;20199;-68
2023/11/24 04:05:47;;;;;;;1.00;0.80;;;20.60;90.70;;;;;;5028340;28;20458;-68
2023/11/24 04:08:14;;;;;;;1.48;0.82;;;20.70;90.80;;;;;;5023982;28;20195;-68
2023/11/24 04:10:40;;;;;;;1.17;0.80;;;20.70;90.90;;;;;;5026977;28;20220;-68
2023/11/24 04:13:08;;;;;;;1.50;1.10;;;20.60;90.80;;;;;;5026414;28;20194;-68
2023/11/24 04:15:35;;;;;;;1.03;0.93;;;20.70;90.90;;;;;;5028687;28;20470;-69
2023/11/24 04:18:02;;;;;;;1.13;0.80;;;20.70;90.90;;;;;;5027560;28;20453;-68
2023/11/24 04:20:29;;;;;;;1.60;1.10;;;20.70;90.90;;;;;;5027800;28;20280;-68
2023/11/24 04:22:57;;;;;;;1.20;0.90;;;20.70;90.80;;;;;;5023670;28;20196;-68
2023/11/24 04:25:24;;;;;;;1.30;0.90;;;20.70;90.90;;;;;;5024569;28;20211;-68
2023/11/24 04:27:51;;;;;;;1.00;0.80;;;20.70;90.80;;;;;;5026350;28;20434;-68
2023/11/24 04:30:18;;;;;;;1.20;0.95;;;20.60;90.80;;;;;;5026044;28;20683;-68
2023/11/24 04:32:45;;;;;;;1.45;1.00;;;20.60;90.80;;;;;;5019769;28;20289;-68
2023/11/24 04:35:12;;;;;;;1.13;0.80;;;20.60;90.80;;;;;;5019147;28;20211;-68
2023/11/24 04:37:39;;;;;;;1.00;0.82;;;20.60;90.80;;;;;;5017957;28;20458;-68
2023/11/24 04:40:09;;;;;;;1.50;0.90;;;20.60;90.80;;;;;;5022243;28;20233;-68
2023/11/24 04:42:35;;;;;;;1.55;1.05;;;20.60;90.80;;;;;;5031295;28;20458;-68
2023/11/24 04:45:02;;;;;;;0.90;0.70;;;20.60;90.80;;;;;;5029876;28;20199;-68
2023/11/24 04:47:29;;;;;;;1.00;0.75;;;20.60;90.90;;;;;;5031669;28;20203;-68
2023/11/24 04:49:55;;;;;;;1.00;0.82;;;20.60;90.90;;;;;;5027693;28;20207;-68
2023/11/24 04:52:22;;;;;;;1.13;0.95;;;20.60;90.90;;;;;;5021960;28;20207;-68
2023/11/24 04:54:50;;;;;;;1.10;1.00;;;20.60;90.90;;;;;;5020407;28;20217;-68
2023/11/24 04:57:18;;;;;;;1.00;0.70;;;20.60;90.90;;;;;;5029114;28;20695;-68
2023/11/24 04:59:44;;;;;;;1.15;0.90;;;20.60;90.80;;;;;;5033471;28;20227;-68
2023/11/24 05:02:12;;;;;;;1.00;0.80;;;20.60;90.80;;;;;;5034573;28;20228;-68
2023/11/24 05:04:39;;;;;;;1.02;0.85;;;20.60;90.90;;;;;;5034811;28;20221;-68
2023/11/24 05:07:06;;;;;;;1.10;0.90;;;20.60;90.90;;;;;;5032209;28;20197;-68
2023/11/24 05:09:32;;;;;;;1.20;1.00;;;20.60;90.90;;;;;;5033078;28;20208;-68
2023/11/24 05:11:59;;;;;;;0.90;0.80;;;20.50;90.80;;;;;;5029807;28;20239;-68
2023/11/24 05:14:27;;;;;;;1.65;0.90;;;20.60;90.90;;;;;;5030076;28;20199;-69
2023/11/24 05:16:54;;;;;;;1.90;1.00;;;20.60;90.90;;;;;;5032896;28;20210;-68
2023/11/24 05:19:21;;;;;;;1.17;0.80;;;20.60;90.90;;;;;;5027557;28;20694;-68
2023/11/24 05:21:47;;;;;;;1.13;1.00;;;20.60;90.90;;;;;;5030802;28;20456;-68
2023/11/24 05:24:14;;;;;;;1.95;0.80;;;20.60;90.90;;;;;;5034379;28;20206;-68
2023/11/24 05:26:41;;;;;;;1.27;0.90;;;20.60;90.90;;;;;;5030972;28;20203;-68
2023/11/24 05:29:08;;;;;;;1.05;0.85;;;20.50;90.80;;;;;;5030845;28;20202;-68
2023/11/24 05:31:36;;;;;;;1.35;1.00;;;20.50;90.90;;;;;;5021485;28;20271;-68
2023/11/24 05:34:03;;;;;;;1.20;0.80;;;20.50;90.90;;;;;;5024410;28;20199;-68
2023/11/24 05:36:31;;;;;;;1.10;0.90;;;20.50;90.90;;;;;;5021014;28;20228;-68
2023/11/24 05:38:57;;;;;;;1.20;0.98;;;20.50;90.90;;;;;;5022285;28;20230;-68
2023/11/24 05:41:26;;;;;;;1.10;1.00;;;20.50;90.80;;;;;;5021445;28;20198;-68
2023/11/24 05:43:52;;;;;;;1.88;0.90;;;20.50;90.90;;;;;;5030773;28;20203;-68
2023/11/24 05:46:19;;;;;;;1.00;0.80;;;20.50;90.90;;;;;;5033282;28;21344;-68
2023/11/24 05:48:48;;;;;;;1.00;0.70;;;20.50;90.90;;;;;;5032295;28;20656;-68
2023/11/24 05:51:14;;;;;;;1.13;0.80;;;20.50;90.90;;;;;;5017425;28;20548;-68
2023/11/24 05:53:41;;;;;;;1.33;0.82;;;20.50;90.90;;;;;;5022823;28;20199;-68
2023/11/24 05:56:09;;;;;;;2.15;1.00;;;20.50;90.90;;;;;;5021487;28;20924;-68
2023/11/24 05:58:35;;;;;;;1.27;0.80;;;20.50;90.80;;;;;;5023996;28;20290;-68
2023/11/24 06:01:03;;;;;;;1.70;0.80;;;20.50;90.90;;;;;;5020288;28;20209;-68
2023/11/24 06:03:30;;;;;;;1.10;0.90;;;20.50;90.90;;;;;;5025081;28;20778;-68
2023/11/24 06:05:59;;;;;;;1.00;0.80;;;20.50;90.90;;;;;;5029971;28;20671;-68
2023/11/24 06:08:27;;;;;;;1.20;0.80;;;20.50;90.90;;;;;;5019158;28;20203;-68
2023/11/24 06:10:54;;;;;;;1.13;0.90;;;20.50;90.90;;;;;;5019126;28;20203;-68
2023/11/24 06:13:20;;;;;;;1.52;0.82;;;20.50;91.00;;;;;;5030407;28;20202;-68
2023/11/24 06:15:47;;;;;;;1.15;0.80;;;20.50;90.90;;;;;;5030025;28;20219;-68
2023/11/24 06:18:14;;;;;;;1.00;0.80;;;20.50;90.90;;;;;;5024908;28;20242;-68
2023/11/24 06:20:41;;;;;;;4.22;1.00;;;20.50;90.90;;;;;;5031334;28;20224;-67
2023/11/24 06:23:09;;;;;;;1.00;0.88;;;20.50;91.30;;;;;;5025390;28;20941;-68
2023/11/24 06:25:35;;;;;;;2.20;0.88;;;20.50;90.90;;;;;;5024319;28;20196;-68
2023/11/24 06:28:02;;;;;;;1.42;0.80;;;20.50;90.90;;;;;;5026906;28;20200;-70
2023/11/24 06:30:29;;;;;;;1.40;0.80;;;20.50;91.00;;;;;;5022994;28;20553;-73
2023/11/24 06:32:56;;;;;;;2.10;0.80;;;20.50;90.90;;;;;;5021292;28;21194;-67
2023/11/24 06:35:22;;;;;;;1.10;0.80;;;20.50;90.90;;;;;;5032436;28;20219;-70
2023/11/24 06:37:49;;;;;;;1.60;1.08;;;20.50;91.00;;;;;;5028827;28;20199;-65
2023/11/24 06:40:17;;;;;;;1.42;1.00;;;20.50;91.00;;;;;;5024915;28;20199;-75
2023/11/24 06:42:44;;;;;;;2.20;0.80;;;20.50;91.10;;;;;;5029526;28;20228;-71
2023/11/24 06:45:13;;;;;;;1.33;1.02;;;20.50;91.20;;;;;;5025777;28;20221;-75
2023/11/24 06:47:40;;;;;;;1.30;0.80;;;20.50;91.30;;;;;;5030166;28;20191;-74
2023/11/24 06:50:09;;;;;;;1.40;1.30;;;20.50;91.40;;;;;;5026224;28;20199;-71
2023/11/24 06:52:35;;;;;;;3.92;1.00;;;20.50;91.40;;;;;;5025036;28;20817;-71
2023/11/24 06:55:03;;;;;;;23.92;1.30;;;20.50;91.50;;;;;;5023328;28;20195;-69
2023/11/24 06:57:31;;;;;;;2.47;0.88;;;20.50;91.50;;;;;;5027990;28;20231;-67
2023/11/24 06:59:58;;;;;;;1.70;0.90;;;20.50;91.60;;;;;;5024913;28;20552;-65
2023/11/24 07:02:25;;;;;;;1.10;0.90;;;20.50;91.60;;;;;;5022346;28;20934;-66
2023/11/24 07:04:52;;;;;;;1.30;0.80;;;20.60;91.70;;;;;;5027288;28;20215;-67
2023/11/24 07:07:20;;;;;;;1.00;0.80;;;20.50;91.70;;;;;;5027726;28;20201;-67
2023/11/24 07:09:47;;;;;;;1.00;0.80;;;20.60;91.80;;;;;;5029295;28;20710;-68
2023/11/24 07:12:17;;;;;;;1.10;0.80;;;20.60;91.90;;;;;;5032478;28;20455;-64
2023/11/24 07:14:47;;;;;;;0.90;0.68;;;20.60;91.90;;;;;;5022611;28;20188;-67
2023/11/24 07:17:13;;;;;;;1.13;0.73;;;20.60;91.90;;;;;;5026600;28;20220;-66
2023/11/24 07:19:41;;;;;;;1.05;0.80;;;20.60;91.90;;;;;;5023936;28;20200;-66
2023/11/24 07:22:08;;;;;;;1.20;0.80;;;20.60;91.90;;;;;;5024909;28;20193;-66
2023/11/24 07:24:38;;;;;;;1.10;0.83;;;20.60;91.90;;;;;;5021613;28;20191;-64
2023/11/24 07:27:05;;;;;;;1.10;0.90;;;20.60;91.90;;;;;;5023584;28;20896;-66
2023/11/24 07:29:33;;;;;;;1.75;1.65;;;20.70;92.10;;;;;;5020944;28;20229;-67
2023/11/24 07:32:02;;;;;;;1.27;0.80;;;20.60;92.00;;;;;;5019943;28;20192;-66
2023/11/24 07:34:31;;;;;;;1.00;0.90;;;20.70;92.20;;;;;;5019810;28;20274;-65
2023/11/24 07:37:00;;;;;;;1.40;0.73;;;20.70;92.20;;;;;;5023285;28;20495;-65
2023/11/24 07:39:27;;;;;;;1.00;0.83;;;20.70;92.10;;;;;;5018606;28;20265;-66
2023/11/24 07:41:55;;;;;;;1.10;0.80;;;20.80;92.30;;;;;;5020069;28;21029;-65
2023/11/24 07:44:22;;;;;;;1.03;0.80;;;20.80;92.30;;;;;;5020290;28;20464;-67
2023/11/24 07:46:49;;;;;;;1.13;0.80;;;20.80;92.30;;;;;;5018452;28;20515;-69
2023/11/24 07:49:18;;;;;;;1.30;0.70;;;20.90;92.30;;;;;;5022105;28;20462;-72
2023/11/24 07:51:45;;;;;;;5.80;0.90;;;20.90;92.30;;;;;;5018634;28;20458;-73
2023/11/24 07:54:11;;;;;;;1.20;0.80;;;20.90;92.30;;;;;;5020250;28;20542;-72
2023/11/24 07:56:38;;;;;;;2.60;0.87;;;21.00;92.30;;;;;;5021978;28;20481;-76
2023/11/24 07:59:05;;;;;;;2.03;1.00;;;21.00;92.30;;;;;;5019960;28;20964;-70
2023/11/24 08:01:32;;;;;;;1.50;1.30;;;21.00;92.20;;;;;;5020004;28;20964;-70
2023/11/24 08:04:00;;;;;;;0.90;0.80;;;21.00;92.20;;;;;;5018442;28;20461;-72
2023/11/24 08:06:28;;;;;;;2.90;0.73;;;21.10;92.60;;;;;;5018460;28;21394;-69
2023/11/24 08:08:56;;;;;;;3.03;0.90;;;21.10;92.20;;;;;;5022454;28;20458;-71
2023/11/24 08:11:23;;;;;;;1.57;0.90;;;21.10;92.20;;;;;;5016659;28;20458;-71
2023/11/24 08:13:50;;;;;;;1.00;0.67;;;21.20;92.20;;;;;;5021781;28;20454;-71
2023/11/24 08:16:17;;;;;;;0.90;0.63;;;21.20;92.10;;;;;;5016507;28;20517;-68
2023/11/24 08:18:44;;;;;;;3.50;0.80;;;21.20;92.10;;;;;;5023047;28;20458;-71
2023/11/24 08:21:10;;;;;;;1.53;0.90;;;21.20;92.00;;;;;;5020061;28;20468;-68
2023/11/24 08:23:39;;;;;;;0.87;0.67;;;21.20;91.90;;;;;;5021982;28;20461;-69
2023/11/24 08:26:05;;;;;;;1.30;0.80;;;21.20;91.80;;;;;;5019370;28;20970;-70
2023/11/24 08:28:33;;;;;;;1.00;0.80;;;21.30;91.80;;;;;;5020334;28;20469;-68
2023/11/24 08:31:01;;;;;;;1.00;0.70;;;21.30;91.80;;;;;;5021908;28;20458;-67
2023/11/24 08:33:28;;;;;;;0.97;0.70;;;21.30;91.70;;;;;;5021605;28;20462;-70
2023/11/24 08:35:54;;;;;;;3.00;1.00;;;21.30;91.70;;;;;;5021950;28;20485;-72
2023/11/24 08:38:21;;;;;;;1.30;0.70;;;21.30;91.60;;;;;;5019770;28;20458;-72
2023/11/24 08:40:49;;;;;;;1.17;0.70;;;21.30;91.60;;;;;;5019344;28;20454;-69
2023/11/24 08:43:16;;;;;;;1.30;0.90;;;21.30;91.50;;;;;;5020944;28;20485;-71
2023/11/24 08:45:43;;;;;;;0.90;0.70;;;21.30;91.50;;;;;;5019827;28;20461;-72
2023/11/24 08:48:09;;;;;;;1.00;0.80;;;21.30;91.40;;;;;;5016155;28;21529;-69
2023/11/24 08:50:37;;;;;;;0.90;0.70;;;21.30;91.40;;;;;;5019852;28;20454;-70
2023/11/24 08:53:05;;;;;;;1.00;0.70;;;21.30;91.30;;;;;;5021501;28;20468;-70
2023/11/24 08:55:32;;;;;;;1.10;0.90;;;21.30;91.30;;;;;;5017826;28;20953;-71
2023/11/24 08:58:00;;;;;;;1.13;0.90;;;21.30;91.30;;;;;;5018793;28;20467;-72
2023/11/24 09:00:28;;;;;;;1.27;0.87;;;21.30;91.30;;;;;;5019875;28;20459;-71
2023/11/24 09:02:55;;;;;;;0.93;0.70;;;21.30;91.20;;;;;;5020781;28;20793;-70
2023/11/24 09:05:22;;;;;;;1.23;0.80;;;21.30;91.20;;;;;;5023369;28;20481;-70
2023/11/24 09:07:48;;;;;;;1.00;0.70;;;21.30;91.20;;;;;;5017854;28;20463;-72
2023/11/24 09:10:16;;;;;;;1.27;0.80;;;21.30;91.10;;;;;;5022167;28;21345;-72
2023/11/24 09:12:43;;;;;;;6.30;1.03;;;21.30;91.10;;;;;;5024981;28;20453;-73
2023/11/24 09:15:11;;;;;;;1.30;0.70;;;21.30;91.10;;;;;;5017788;28;20488;-74
2023/11/24 09:17:38;;;;;;;0.90;0.70;;;21.30;91.50;;;;;;5017643;28;20505;-72
2023/11/24 09:20:08;;;;;;;1.10;0.80;;;21.30;91.20;;;;;;5024064;28;20473;-72
2023/11/24 09:22:35;;;;;;;0.97;0.70;;;21.40;91.30;;;;;;5012097;28;20489;-72
2023/11/24 09:25:02;;;;;;;0.90;0.60;;;21.40;91.40;;;;;;5020788;28;20812;-73
2023/11/24 09:27:34;;;;;;;1.23;0.70;;;21.30;91.30;;;;;;5022026;28;20472;-65
2023/11/24 09:30:01;;;;;;;1.10;0.80;;;21.40;91.40;;;;;;5025326;28;20963;-65
2023/11/24 09:32:31;;;;;;;2.23;0.90;;;21.40;91.40;;;;;;5020231;28;20991;-67
2023/11/24 09:34:58;;;;;;;0.93;0.63;;;21.40;91.40;;;;;;5021938;28;20538;-70
2023/11/24 09:37:26;;;;;;;1.00;0.70;;;21.50;91.50;;;;;;5024313;28;20994;-69
2023/11/24 09:39:53;;;;;;;1.10;0.70;;;21.40;91.50;;;;;;5021754;28;20571;-69
2023/11/24 09:42:21;;;;;;;1.30;0.70;;;21.50;91.60;;;;;;5025014;28;20458;-70
2023/11/24 09:44:49;;;;;;;1.00;0.90;;;21.40;91.50;;;;;;5025396;28;20952;-68
2023/11/24 09:47:17;;;;;;;0.90;0.70;;;21.50;91.60;;;;;;5021833;28;20462;-70
2023/11/24 09:49:46;;;;;;;1.10;0.83;;;21.50;91.60;;;;;;5026888;28;21523;-67
2023/11/24 09:52:14;;;;;;;1.00;0.80;;;21.50;91.60;;;;;;5027865;28;20858;-67
2023/11/24 09:54:42;;;;;;;1.00;0.70;;;21.50;91.60;;;;;;5018059;28;20466;-71
2023/11/24 09:57:08;;;;;;;1.20;0.90;;;21.50;91.60;;;;;;5028074;28;21590;-70
2023/11/24 09:59:35;;;;;;;2.30;0.77;;;21.50;91.60;;;;;;5030837;28;20461;-67
2023/11/24 10:02:03;;;;;;;1.00;0.60;;;21.50;91.70;;;;;;5030242;28;21060;-66
2023/11/24 10:04:30;;;;;;;1.53;1.33;;;21.50;91.70;;;;;;5026665;28;20466;-67
2023/11/24 10:06:58;;;;;;;1.40;0.80;;;21.60;91.70;;;;;;5017712;28;20458;-68
2023/11/24 10:09:28;;;;;;;3.23;0.90;;;21.60;91.70;;;;;;5020963;28;21003;-67
2023/11/24 10:11:58;;;;;;;1.20;0.80;;;21.60;91.10;;;;;;5018551;28;20465;-69
2023/11/24 10:14:25;;;;;;;15.93;1.07;;;21.50;90.90;;;;;;5024175;28;20461;-70
2023/11/24 10:16:52;;;;;;;1.97;0.90;;;21.50;91.00;;;;;;5019664;28;21247;-68
2023/11/24 10:19:19;;;;;;;1.93;1.10;;;21.50;91.10;;;;;;5019652;28;20461;-66
2023/11/24 10:21:46;;;;;;;1.20;0.60;;;21.50;91.10;;;;;;5019612;28;21505;-67
2023/11/24 10:24:14;;;;;;;1.00;0.70;;;21.50;91.10;;;;;;5014268;28;20461;-69
2023/11/24 10:26:44;;;;;;;1.33;0.77;;;21.60;91.60;;;;;;5018194;28;20496;-67
2023/11/24 10:29:11;;;;;;;0.90;0.70;;;21.60;91.30;;;;;;5020474;28;20465;-67
2023/11/24 10:31:39;;;;;;;1.13;0.90;;;21.60;91.40;;;;;;5019750;28;20468;-70
2023/11/24 10:34:06;;;;;;;1.03;0.90;;;21.60;91.40;;;;;;5019205;28;20473;-67
2023/11/24 10:36:36;;;;;;;1.47;0.80;;;21.70;91.50;;;;;;5020592;28;20497;-67
2023/11/24 10:39:08;;;;;;;1.60;1.17;;;21.60;91.50;;;;;;5017484;28;21035;-67
2023/11/24 10:41:43;;;;;;;3.20;1.57;;;21.70;91.60;;;;;;5013227;28;21142;-69
2023/11/24 10:44:12;;;;;;;3.27;1.27;;;21.70;91.60;;;;;;5009681;28;20458;-66
2023/11/24 10:46:43;;;;;;;1.53;0.90;;;21.70;91.60;;;;;;5016327;28;20473;-69
2023/11/24 10:49:21;;;;;;;1.53;0.77;;;21.70;91.60;;;;;;5020928;28;20458;-72
2023/11/24 10:51:58;;;;;;;1.40;0.90;;;21.70;91.60;;;;;;5020749;28;20454;-68
2023/11/24 10:54:32;;;;;;;1.10;0.70;;;21.70;91.60;;;;;;5018511;28;20458;-68
2023/11/24 10:57:02;;;;;;;2.20;0.93;;;21.70;91.60;;;;;;5019481;28;20474;-69
2023/11/24 10:59:33;;;;;;;1.37;0.97;;;21.80;91.70;;;;;;5017981;28;20462;-68
2023/11/24 11:02:05;;;;;;;4.30;0.70;;;21.80;91.70;;;;;;5018538;28;20750;-68
2023/11/24 11:04:32;;;;;;;4.13;1.13;;;21.80;91.70;;;;;;5021881;28;22646;-68
2023/11/24 11:07:07;;;;;;;4.40;1.13;;;21.80;91.60;;;;;;5021479;28;21005;-66
2023/11/24 11:09:47;;;;;;;1.47;0.80;;;21.80;91.60;;;;;;5018880;28;20532;-67
2023/11/24 11:12:34;;;;;;;1.10;0.90;;;21.80;91.60;;;;;;5019213;28;20454;-67
2023/11/24 11:15:01;;;;;;;1.20;0.80;;;21.80;91.60;;;;;;5017615;28;20458;-67
2023/11/24 11:17:27;;;;;;;1.33;1.00;;;21.80;91.60;;;;;;5023118;28;20852;-66
2023/11/24 11:19:58;;;;;;;1.10;0.80;;;21.80;91.60;;;;;;5020804;28;20458;-68
2023/11/24 11:22:28;;;;;;;2.33;0.90;;;21.80;91.60;;;;;;5020260;28;20466;-66
2023/11/24 11:24:57;;;;;;;1.03;0.80;;;21.90;91.70;;;;;;5022912;28;20457;-64
2023/11/24 11:27:26;;;;;;;5.57;0.83;;;21.90;91.70;;;;;;5024172;28;20984;-65
2023/11/24 11:29:53;;;;;;;1.43;0.70;;;21.90;91.60;;;;;;5025538;28;20461;-68
2023/11/24 11:32:22;;;;;;;1.77;1.07;;;21.90;91.60;;;;;;5023062;28;20524;-69
2023/11/24 11:34:49;;;;;;;1.20;0.70;;;21.90;91.60;;;;;;5025013;28;20604;-69
2023/11/24 11:37:15;;;;;;;1.23;0.80;;;21.90;91.60;;;;;;5029387;28;20477;-69
2023/11/24 11:39:53;;;;;;;2.13;0.90;;;21.90;91.60;;;;;;5032107;28;20457;-66
2023/11/24 11:42:22;;;;;;;3.17;1.50;;;22.00;91.70;;;;;;5026588;28;20473;-70
2023/11/24 11:44:56;;;;;;;1.30;0.73;;;21.90;91.60;;;;;;5030164;28;20589;-69
2023/11/24 11:47:24;;;;;;;2.30;0.70;;;21.90;91.60;;;;;;5027567;28;21039;-69
2023/11/24 11:49:53;;;;;;;2.40;0.70;;;21.90;91.50;;;;;;5032850;28;21068;-72
2023/11/24 11:52:21;;;;;;;1.00;0.80;;;21.90;91.50;;;;;;5031129;28;20831;-68
2023/11/24 11:54:50;;;;;;;1.67;0.70;;;21.90;91.40;;;;;;5029436;28;20469;-67
2023/11/24 11:57:17;;;;;;;2.63;0.80;;;22.00;91.30;;;;;;5030263;28;20577;-70
2023/11/24 11:59:46;;;;;;;1.10;0.70;;;22.00;91.30;;;;;;5028460;28;20457;-74
2023/11/24 12:02:17;;;;;;;2.03;0.80;;;21.90;91.30;;;;;;5028184;28;20482;-71
2023/11/24 12:04:45;;;;;;;2.10;0.80;;;21.90;91.30;;;;;;5028580;28;20532;-73
2023/11/24 12:07:13;;;;;;;1.40;0.70;;;22.00;91.40;;;;;;5022633;28;20538;-71
2023/11/24 12:09:41;;;;;;;1.20;0.87;;;22.00;91.40;;;;;;5030338;28;20454;-68
2023/11/24 12:12:09;;;;;;;2.00;0.80;;;22.00;91.40;;;;;;5023605;28;20460;-68
2023/11/24 12:14:38;;;;;;;1.90;0.73;;;22.00;91.40;;;;;;5026861;28;20459;-67
2023/11/24 12:17:05;;;;;;;0.90;0.70;;;22.00;91.40;;;;;;5029315;28;20838;-67
2023/11/24 12:19:34;;;;;;;1.17;0.80;;;22.00;91.40;;;;;;5023361;28;20462;-67
2023/11/24 12:22:03;;;;;;;3.83;1.00;;;22.00;91.40;;;;;;5026745;28;20548;-67
2023/11/24 12:24:31;;;;;;;0.97;0.60;;;22.10;91.40;;;;;;5022056;28;20453;-68
2023/11/24 12:26:59;;;;;;;9.57;1.47;;;22.10;91.40;;;;;;5034707;28;20458;-67
2023/11/24 12:29:26;;;;;;;4.03;0.80;;;22.00;91.40;;;;;;5030573;28;20728;-71
2023/11/24 12:31:54;;;;;;;2.80;0.80;;;22.00;91.40;;;;;;5018355;28;20834;-71
2023/11/24 12:34:21;;;;;;;3.37;0.70;;;22.00;91.20;;;;;;5029054;28;20914;-70
2023/11/24 12:36:53;;;;;;;3.43;0.70;;;22.00;90.70;;;;;;5032073;28;20457;-68
2023/11/24 12:39:23;;;;;;;1.07;0.80;;;21.90;90.60;;;;;;5026860;28;21063;-66
2023/11/24 12:41:50;;;;;;;2.37;0.90;;;21.90;90.50;;;;;;5029894;28;20486;-65
2023/11/24 12:44:17;;;;;;;3.00;0.70;;;21.90;90.60;;;;;;5031262;28;20554;-67
2023/11/24 12:46:44;;;;;;;1.50;0.80;;;21.90;90.60;;;;;;5032484;28;20465;-68
2023/11/24 12:49:11;;;;;;;1.20;0.70;;;21.90;90.60;;;;;;5023927;28;20466;-70